Glacier Bay National Park, AK

7:41 PM AKDT on September 23, 2014 (GMT -0800)
Elfin Cove | Change Station
CLOSE
Current Station
Airport
Location: Elfin Cove,
Elevation: 0 ft
Nearby Weather Stations

Elev 0 ft 58.20 °N, 136.35 °W | Updated 8 hours ago

Clear
Clear
48 °F
Feels Like 48 °F
N
14
Wind Variable Wind from NW
Gusts 17 mph

Today
High -- | Low -- °F
--% Chance of Precip.
Yesterday
High -- | Low -- °F
Precip. -- in
6:55 AM 7:03 PM
Waning Crescent, 0% visible
Pressure 29.84 in
Visibility 20.0 miles
Clouds Scattered Clouds 1200 ft
Dew Point 34 °F
Humidity 56%
Rainfall 0.00 in
Snow Depth 2 in , 9 in , 0 in
UV 2 out of 12
Pollen Not available.
Air Quality Not available.
Flu Activity Not available.
METAR PAEL 231849Z 06010KT 20SM SCT012 12/08 A2984 RMK SPB 06012KT NOSPECI

More Conditions Fewer Conditions

Pressure 29.84 in
Visibility 20.0 miles
Clouds Scattered Clouds 1200 ft
Dew Point 34 °F
Humidity 56%
Rainfall 0.00 in
Snow Depth 2 in , 9 in , 0 in
UV 2 out of 12
Pollen Not available.
Air Quality Not available.
Flu Activity Not available.
METAR PAEL 231849Z 06010KT 20SM SCT012 12/08 A2984 RMK SPB 06012KT NOSPECI

More Conditions Fewer Conditions

10-Day Weather Forecast

Almanac

Astronomy

Sep. 23, 2014 Rise Set
Actual Time 6:55 AM AKDT 7:03 PM AKDT
Civil Twilight 6:14 AM AKDT 7:43 PM AKDT
Nautical Twilight 5:26 AM AKDT 8:31 PM AKDT
Astronomical Twilight 4:35 AM AKDT 9:23 PM AKDT
Moon 6:26 AM AKDT (9/23) 6:41 PM AKDT (9/23)
Length of Visible Light 13h 28m
Length of Day
12h 08m
Tomorrow will be 5m 8s shorter.
Waning Crescent, 0% of the Moon is Illuminated
Today
Waning Crescent
Sep 24
New
Oct 1
First Quarter
Oct 8
Full
Oct 15
Last Quarter

Today's Extremes

State Highs State Lows

Community

WunderPhotos

Upload Photos

1,755,878 photos uploaded!

WunderBlogs® & News

Nearby

Snow Depth

Station Depth Elevation
Coldfoot 2 in 1040 ft
Atigun Pass 9 in 4800 ft
Long Lake 0 in 820 ft
Munson Ridge 0 in 3100 ft
Cooper Lake 8 in 1200 ft

Earthquake Activity

City Distance Mag. Time & Date
No recent earthquake activity has been reported nearby.
Minimum magnitude displayed is 2.5.

Coastal Water Temperatures

Place Temperature
No Stations Reporting

Nearby Weather Stations